EZY98DW EHAM-EGKK
Flight info
| Callsign | EZY98DW |
|---|---|
| Flight time | 0h 50m |
| Altitude | 24000 |
| Route | IDRID L980 ABNED Z344 AMRIV Q63 ARREK Y4 TEBRA |
| Aircraft | A320/M-SDE3FGHIRWY/LB1 |
Departure
| Time | 2026-05-07 10:59 |
|---|---|
| Airport | Amsterdam Airport Schiphol (EHAM) |
Arrival
| Time | 2026-05-07 11:49 |
|---|---|
| Airport | London Gatwick Airport (EGKK) |
| Time | Latitude | Longitude | Altitude | Speed | Heading |
|---|---|---|---|---|---|
| 2026-05-07 10:22 | 52.31046 | 4.75513 | -2 ft | 0 kts | 150° |
| 2026-05-07 10:25 | 52.31047 | 4.75512 | -2 ft | 0 kts | 150° |
| 2026-05-07 10:45 | 52.31051 | 4.75508 | -2 ft | 4 kts | 148° |
| 2026-05-07 10:46 | 52.31071 | 4.75481 | -2 ft | 4 kts | 121° |
| 2026-05-07 10:46 | 52.31079 | 4.75442 | -2 ft | 4 kts | 79° |
| 2026-05-07 10:46 | 52.31074 | 4.75418 | -2 ft | 0 kts | 56° |
| 2026-05-07 10:50 | 52.31075 | 4.75422 | -2 ft | 3 kts | 56° |
| 2026-05-07 10:50 | 52.31086 | 4.75448 | -2 ft | 5 kts | 55° |
| 2026-05-07 10:50 | 52.31137 | 4.75496 | -2 ft | 12 kts | 5° |
| 2026-05-07 10:50 | 52.31229 | 4.75465 | -2 ft | 15 kts | 343° |
| 2026-05-07 10:51 | 52.31340 | 4.75447 | -2 ft | 17 kts | 358° |
| 2026-05-07 10:51 | 52.31462 | 4.75435 | -2 ft | 16 kts | 352° |
| 2026-05-07 10:51 | 52.31508 | 4.75349 | -3 ft | 10 kts | 274° |
| 2026-05-07 10:51 | 52.31504 | 4.75205 | -3 ft | 16 kts | 266° |
| 2026-05-07 10:52 | 52.31496 | 4.74983 | -2 ft | 23 kts | 268° |
| 2026-05-07 10:52 | 52.31486 | 4.74686 | -2 ft | 29 kts | 268° |
| 2026-05-07 10:52 | 52.31474 | 4.74355 | -2 ft | 22 kts | 266° |
| 2026-05-07 10:52 | 52.31417 | 4.74150 | -2 ft | 20 kts | 207° |
| 2026-05-07 10:53 | 52.31276 | 4.74126 | -2 ft | 21 kts | 184° |
| 2026-05-07 10:53 | 52.31121 | 4.74111 | -2 ft | 24 kts | 183° |
| 2026-05-07 10:53 | 52.30956 | 4.74096 | -2 ft | 23 kts | 185° |
| 2026-05-07 10:53 | 52.30829 | 4.74084 | -3 ft | 16 kts | 184° |
| 2026-05-07 10:54 | 52.30719 | 4.74073 | -2 ft | 15 kts | 183° |
| 2026-05-07 10:54 | 52.30609 | 4.74064 | -2 ft | 17 kts | 183° |
| 2026-05-07 10:54 | 52.30489 | 4.74054 | -2 ft | 16 kts | 183° |
| 2026-05-07 10:54 | 52.30406 | 4.74048 | -2 ft | 11 kts | 184° |
| 2026-05-07 10:55 | 52.30323 | 4.74026 | -2 ft | 15 kts | 197° |
| 2026-05-07 10:55 | 52.30241 | 4.73944 | -2 ft | 11 kts | 218° |
| 2026-05-07 10:55 | 52.30199 | 4.73879 | -4 ft | 8 kts | 234° |
| 2026-05-07 10:55 | 52.30191 | 4.73781 | -3 ft | 10 kts | 282° |
| 2026-05-07 10:56 | 52.30222 | 4.73740 | -4 ft | 10 kts | 352° |
| 2026-05-07 10:56 | 52.30255 | 4.73739 | -6 ft | 0 kts | 1° |
| 2026-05-07 10:58 | 52.30256 | 4.73739 | -6 ft | 1 kts | 1° |
| 2026-05-07 10:58 | 52.30389 | 4.73749 | -6 ft | 55 kts | 3° |
| 2026-05-07 10:58 | 52.31017 | 4.73810 | 0 ft | 123 kts | 4° |
| 2026-05-07 10:58 | 52.32046 | 4.73911 | 128 ft | 162 kts | 4° |
| 2026-05-07 10:59 | 52.33135 | 4.73910 | 994 ft | 153 kts | 351° |
| 2026-05-07 10:59 | 52.34205 | 4.73558 | 1653 ft | 164 kts | 345° |
| 2026-05-07 10:59 | 52.35347 | 4.72941 | 2122 ft | 183 kts | 348° |
| 2026-05-07 10:59 | 52.36694 | 4.72804 | 2546 ft | 207 kts | 2° |
| 2026-05-07 11:00 | 52.38229 | 4.72931 | 3091 ft | 232 kts | 4° |
| 2026-05-07 11:00 | 52.39906 | 4.73108 | 3765 ft | 250 kts | 4° |
| 2026-05-07 11:00 | 52.41664 | 4.73298 | 4771 ft | 255 kts | 4° |
| 2026-05-07 11:00 | 52.43453 | 4.73023 | 5738 ft | 262 kts | 341° |
| 2026-05-07 11:01 | 52.45018 | 4.71486 | 6671 ft | 268 kts | 314° |
| 2026-05-07 11:01 | 52.45994 | 4.68889 | 7566 ft | 273 kts | 286° |
| 2026-05-07 11:01 | 52.46121 | 4.65781 | 8494 ft | 278 kts | 259° |
| 2026-05-07 11:01 | 52.45359 | 4.62862 | 9447 ft | 282 kts | 237° |
| 2026-05-07 11:02 | 52.44286 | 4.60153 | 10349 ft | 289 kts | 237° |
| 2026-05-07 11:02 | 52.43140 | 4.57282 | 10727 ft | 312 kts | 237° |
| 2026-05-07 11:02 | 52.41907 | 4.54198 | 11095 ft | 334 kts | 237° |
| 2026-05-07 11:02 | 52.40617 | 4.50973 | 11770 ft | 343 kts | 237° |
| 2026-05-07 11:03 | 52.39303 | 4.47679 | 12574 ft | 348 kts | 237° |
| 2026-05-07 11:03 | 52.37975 | 4.44343 | 13395 ft | 352 kts | 238° |
| 2026-05-07 11:03 | 52.36632 | 4.40966 | 14169 ft | 356 kts | 238° |
| 2026-05-07 11:03 | 52.35270 | 4.37545 | 14875 ft | 360 kts | 238° |
| 2026-05-07 11:04 | 52.33896 | 4.34095 | 15631 ft | 364 kts | 238° |
| 2026-05-07 11:04 | 52.32508 | 4.30614 | 16368 ft | 367 kts | 238° |
| 2026-05-07 11:04 | 52.31112 | 4.27112 | 17085 ft | 370 kts | 237° |
| 2026-05-07 11:04 | 52.29761 | 4.23732 | 17742 ft | 374 kts | 237° |
| 2026-05-07 11:05 | 52.28378 | 4.20284 | 18414 ft | 377 kts | 237° |
| 2026-05-07 11:05 | 52.26932 | 4.16685 | 19028 ft | 380 kts | 237° |
| 2026-05-07 11:05 | 52.25467 | 4.13050 | 19617 ft | 383 kts | 237° |
| 2026-05-07 11:05 | 52.23994 | 4.09399 | 20192 ft | 387 kts | 237° |
| 2026-05-07 11:06 | 52.22516 | 4.05735 | 20780 ft | 390 kts | 237° |
| 2026-05-07 11:06 | 52.21014 | 4.02016 | 21356 ft | 393 kts | 237° |
| 2026-05-07 11:06 | 52.19506 | 3.98289 | 21910 ft | 397 kts | 237° |
| 2026-05-07 11:06 | 52.17979 | 3.94523 | 22460 ft | 400 kts | 237° |
| 2026-05-07 11:07 | 52.16458 | 3.90782 | 23025 ft | 402 kts | 237° |
| 2026-05-07 11:07 | 52.14888 | 3.86921 | 23565 ft | 406 kts | 237° |
| 2026-05-07 11:07 | 52.13345 | 3.83123 | 23953 ft | 409 kts | 237° |
| 2026-05-07 11:07 | 52.11755 | 3.79215 | 24078 ft | 410 kts | 237° |
| 2026-05-07 11:08 | 52.10167 | 3.75321 | 24091 ft | 416 kts | 237° |
| 2026-05-07 11:08 | 52.08564 | 3.71396 | 24092 ft | 417 kts | 237° |
| 2026-05-07 11:08 | 52.06952 | 3.67457 | 24093 ft | 417 kts | 237° |
| 2026-05-07 11:08 | 52.05360 | 3.63585 | 24092 ft | 417 kts | 236° |
| 2026-05-07 11:09 | 52.03741 | 3.59658 | 24087 ft | 418 kts | 236° |
| 2026-05-07 11:09 | 52.02107 | 3.55697 | 24087 ft | 417 kts | 237° |
| 2026-05-07 11:09 | 52.00506 | 3.51815 | 24095 ft | 417 kts | 236° |
| 2026-05-07 11:09 | 51.98884 | 3.47914 | 24093 ft | 418 kts | 236° |
| 2026-05-07 11:10 | 51.97204 | 3.44054 | 24094 ft | 418 kts | 234° |
| 2026-05-07 11:10 | 51.95486 | 3.40248 | 24093 ft | 418 kts | 234° |
| 2026-05-07 11:10 | 51.93746 | 3.36457 | 24089 ft | 418 kts | 233° |
| 2026-05-07 11:10 | 51.92007 | 3.32697 | 24088 ft | 417 kts | 233° |
| 2026-05-07 11:11 | 51.90271 | 3.28932 | 24098 ft | 417 kts | 233° |
| 2026-05-07 11:11 | 51.88539 | 3.25164 | 24094 ft | 417 kts | 233° |
| 2026-05-07 11:11 | 51.86820 | 3.21408 | 24093 ft | 417 kts | 234° |
| 2026-05-07 11:11 | 51.85128 | 3.17595 | 24081 ft | 416 kts | 238° |
| 2026-05-07 11:12 | 51.83744 | 3.13491 | 24080 ft | 416 kts | 243° |
| 2026-05-07 11:12 | 51.82438 | 3.09300 | 24079 ft | 416 kts | 243° |
| 2026-05-07 11:12 | 51.81144 | 3.05192 | 24080 ft | 416 kts | 243° |
| 2026-05-07 11:12 | 51.79807 | 3.00975 | 24078 ft | 416 kts | 243° |
| 2026-05-07 11:13 | 51.78502 | 2.96873 | 24077 ft | 416 kts | 243° |
| 2026-05-07 11:13 | 51.77162 | 2.92667 | 24070 ft | 416 kts | 243° |
| 2026-05-07 11:13 | 51.75836 | 2.88510 | 24075 ft | 416 kts | 243° |
| 2026-05-07 11:13 | 51.74512 | 2.84360 | 24074 ft | 416 kts | 243° |
| 2026-05-07 11:14 | 51.73207 | 2.80274 | 24072 ft | 416 kts | 243° |
| 2026-05-07 11:14 | 51.71861 | 2.76066 | 24074 ft | 415 kts | 243° |
| 2026-05-07 11:14 | 51.70552 | 2.71986 | 24076 ft | 415 kts | 243° |
| 2026-05-07 11:14 | 51.69341 | 2.67776 | 24075 ft | 415 kts | 250° |
| 2026-05-07 11:15 | 51.68555 | 2.63308 | 24075 ft | 415 kts | 259° |
| 2026-05-07 11:15 | 51.68135 | 2.58715 | 24071 ft | 415 kts | 262° |
| 2026-05-07 11:15 | 51.67733 | 2.54109 | 24068 ft | 415 kts | 262° |
| 2026-05-07 11:15 | 51.67319 | 2.49516 | 24072 ft | 415 kts | 261° |
| 2026-05-07 11:16 | 51.66898 | 2.44913 | 24075 ft | 415 kts | 261° |
| 2026-05-07 11:16 | 51.66476 | 2.40324 | 24072 ft | 415 kts | 261° |
| 2026-05-07 11:16 | 51.66055 | 2.35729 | 24073 ft | 415 kts | 261° |
| 2026-05-07 11:16 | 51.65631 | 2.31125 | 24073 ft | 415 kts | 261° |
| 2026-05-07 11:17 | 51.65203 | 2.26522 | 24078 ft | 415 kts | 261° |
| 2026-05-07 11:17 | 51.64772 | 2.21931 | 24076 ft | 415 kts | 261° |
| 2026-05-07 11:17 | 51.64338 | 2.17335 | 24071 ft | 415 kts | 261° |
| 2026-05-07 11:17 | 51.63904 | 2.12739 | 23845 ft | 412 kts | 261° |
| 2026-05-07 11:18 | 51.63479 | 2.08205 | 23614 ft | 410 kts | 261° |
| 2026-05-07 11:18 | 51.63058 | 2.03683 | 23350 ft | 408 kts | 261° |
| 2026-05-07 11:18 | 51.62640 | 1.99146 | 23056 ft | 407 kts | 261° |
| 2026-05-07 11:18 | 51.62229 | 1.94661 | 22511 ft | 401 kts | 261° |
| 2026-05-07 11:19 | 51.61822 | 1.90253 | 21914 ft | 395 kts | 260° |
| 2026-05-07 11:19 | 51.61146 | 1.86028 | 21376 ft | 389 kts | 250° |
| 2026-05-07 11:19 | 51.60029 | 1.82165 | 20833 ft | 384 kts | 239° |
| 2026-05-07 11:19 | 51.58503 | 1.78669 | 20320 ft | 379 kts | 230° |
| 2026-05-07 11:20 | 51.56790 | 1.75489 | 19842 ft | 374 kts | 229° |
| 2026-05-07 11:20 | 51.55079 | 1.72363 | 19361 ft | 370 kts | 229° |
| 2026-05-07 11:20 | 51.53375 | 1.69284 | 18874 ft | 367 kts | 229° |
| 2026-05-07 11:20 | 51.51684 | 1.66237 | 18359 ft | 364 kts | 229° |
| 2026-05-07 11:21 | 51.50029 | 1.63178 | 17804 ft | 361 kts | 233° |
| 2026-05-07 11:21 | 51.48677 | 1.59794 | 17284 ft | 358 kts | 243° |
| 2026-05-07 11:21 | 51.47723 | 1.56138 | 16792 ft | 355 kts | 250° |
| 2026-05-07 11:21 | 51.46882 | 1.52431 | 16252 ft | 353 kts | 250° |
| 2026-05-07 11:22 | 51.46033 | 1.48732 | 15727 ft | 352 kts | 250° |
| 2026-05-07 11:22 | 51.45184 | 1.45055 | 15188 ft | 351 kts | 250° |
| 2026-05-07 11:22 | 51.44301 | 1.41419 | 14661 ft | 350 kts | 245° |
| 2026-05-07 11:22 | 51.43057 | 1.38074 | 14112 ft | 349 kts | 233° |
| 2026-05-07 11:23 | 51.41428 | 1.35220 | 13805 ft | 355 kts | 222° |
| 2026-05-07 11:23 | 51.39465 | 1.32785 | 13536 ft | 358 kts | 216° |
| 2026-05-07 11:23 | 51.37457 | 1.30419 | 13264 ft | 357 kts | 217° |
| 2026-05-07 11:23 | 51.35475 | 1.28075 | 12989 ft | 356 kts | 217° |
| 2026-05-07 11:24 | 51.33487 | 1.25717 | 12710 ft | 355 kts | 217° |
| 2026-05-07 11:24 | 51.31519 | 1.23384 | 12434 ft | 353 kts | 217° |
| 2026-05-07 11:24 | 51.29543 | 1.21050 | 12168 ft | 352 kts | 217° |
| 2026-05-07 11:24 | 51.27576 | 1.18735 | 11899 ft | 350 kts | 217° |
| 2026-05-07 11:25 | 51.25627 | 1.16447 | 11628 ft | 349 kts | 217° |
| 2026-05-07 11:25 | 51.23679 | 1.14153 | 11372 ft | 348 kts | 217° |
| 2026-05-07 11:25 | 51.21735 | 1.11863 | 11101 ft | 347 kts | 217° |
| 2026-05-07 11:25 | 51.19797 | 1.09586 | 10839 ft | 343 kts | 217° |
| 2026-05-07 11:26 | 51.17916 | 1.07381 | 10696 ft | 328 kts | 216° |
| 2026-05-07 11:26 | 51.16117 | 1.05273 | 10568 ft | 314 kts | 216° |
| 2026-05-07 11:26 | 51.14388 | 1.03252 | 10428 ft | 302 kts | 216° |
| 2026-05-07 11:26 | 51.12726 | 1.01312 | 10255 ft | 292 kts | 216° |
| 2026-05-07 11:27 | 51.11105 | 0.99418 | 10129 ft | 287 kts | 216° |
| 2026-05-07 11:27 | 51.09490 | 0.97533 | 10045 ft | 287 kts | 216° |
| 2026-05-07 11:27 | 51.07884 | 0.95658 | 9854 ft | 287 kts | 216° |
| 2026-05-07 11:27 | 51.06343 | 0.93650 | 9633 ft | 285 kts | 226° |
| 2026-05-07 11:28 | 51.05159 | 0.91145 | 9437 ft | 284 kts | 240° |
| 2026-05-07 11:28 | 51.04295 | 0.88321 | 9239 ft | 283 kts | 245° |
| 2026-05-07 11:28 | 51.03456 | 0.85491 | 9037 ft | 283 kts | 244° |
| 2026-05-07 11:28 | 51.02616 | 0.82669 | 8846 ft | 282 kts | 244° |
| 2026-05-07 11:29 | 51.01776 | 0.79868 | 8648 ft | 281 kts | 244° |
| 2026-05-07 11:29 | 51.00935 | 0.77071 | 8462 ft | 280 kts | 244° |
| 2026-05-07 11:29 | 51.00101 | 0.74291 | 8264 ft | 278 kts | 244° |
| 2026-05-07 11:29 | 50.99269 | 0.71526 | 8081 ft | 277 kts | 244° |
| 2026-05-07 11:30 | 50.98441 | 0.68773 | 7886 ft | 276 kts | 244° |
| 2026-05-07 11:30 | 50.97612 | 0.66019 | 7701 ft | 276 kts | 244° |
| 2026-05-07 11:30 | 50.96790 | 0.63288 | 7520 ft | 274 kts | 244° |
| 2026-05-07 11:30 | 50.95971 | 0.60566 | 7336 ft | 273 kts | 244° |
| 2026-05-07 11:31 | 50.95154 | 0.57857 | 7154 ft | 272 kts | 244° |
| 2026-05-07 11:31 | 50.94337 | 0.55152 | 6969 ft | 271 kts | 244° |
| 2026-05-07 11:31 | 50.93522 | 0.52453 | 6794 ft | 271 kts | 244° |
| 2026-05-07 11:31 | 50.92710 | 0.49769 | 6598 ft | 270 kts | 244° |
| 2026-05-07 11:32 | 50.91619 | 0.44196 | 6186 ft | 267 kts | 267° |
| 2026-05-07 11:32 | 50.91799 | 0.41246 | 6002 ft | 267 kts | 283° |
| 2026-05-07 11:32 | 50.92313 | 0.38451 | 5815 ft | 267 kts | 285° |
| 2026-05-07 11:33 | 50.92837 | 0.35624 | 5632 ft | 267 kts | 285° |
| 2026-05-07 11:33 | 50.93355 | 0.32806 | 5453 ft | 266 kts | 285° |
| 2026-05-07 11:33 | 50.93868 | 0.29998 | 5283 ft | 266 kts | 285° |
| 2026-05-07 11:33 | 50.94415 | 0.27201 | 5092 ft | 265 kts | 291° |
| 2026-05-07 11:34 | 50.95305 | 0.24664 | 4925 ft | 265 kts | 306° |
| 2026-05-07 11:34 | 50.96443 | 0.22363 | 4740 ft | 265 kts | 307° |
| 2026-05-07 11:34 | 50.97578 | 0.20064 | 4557 ft | 260 kts | 307° |
| 2026-05-07 11:34 | 50.98668 | 0.17849 | 4386 ft | 248 kts | 307° |
| 2026-05-07 11:35 | 50.99710 | 0.15730 | 4223 ft | 237 kts | 307° |
| 2026-05-07 11:35 | 51.00699 | 0.13693 | 4073 ft | 228 kts | 303° |
| 2026-05-07 11:35 | 51.01432 | 0.11503 | 3924 ft | 220 kts | 289° |
| 2026-05-07 11:35 | 51.01812 | 0.09215 | 3853 ft | 209 kts | 277° |
| 2026-05-07 11:36 | 51.01927 | 0.06977 | 3810 ft | 198 kts | 273° |
| 2026-05-07 11:36 | 51.02020 | 0.04839 | 3773 ft | 191 kts | 273° |
| 2026-05-07 11:36 | 51.02110 | 0.02751 | 3733 ft | 190 kts | 273° |
| 2026-05-07 11:36 | 51.02200 | 0.00663 | 3694 ft | 189 kts | 273° |
| 2026-05-07 11:37 | 51.02289 | -0.01421 | 3693 ft | 189 kts | 274° |
| 2026-05-07 11:37 | 51.02379 | -0.03494 | 3657 ft | 188 kts | 274° |
| 2026-05-07 11:37 | 51.02468 | -0.05572 | 3615 ft | 188 kts | 274° |
| 2026-05-07 11:37 | 51.02556 | -0.07630 | 3573 ft | 187 kts | 274° |
| 2026-05-07 11:38 | 51.02642 | -0.09689 | 3533 ft | 187 kts | 274° |
| 2026-05-07 11:38 | 51.02729 | -0.11740 | 3489 ft | 187 kts | 274° |
| 2026-05-07 11:38 | 51.02814 | -0.13778 | 3447 ft | 187 kts | 274° |
| 2026-05-07 11:38 | 51.02873 | -0.15162 | 3419 ft | 187 kts | 274° |
| 2026-05-07 11:39 | 51.02960 | -0.17222 | 3378 ft | 186 kts | 274° |
| 2026-05-07 11:39 | 51.03075 | -0.19952 | 3321 ft | 187 kts | 274° |
| 2026-05-07 11:39 | 51.03132 | -0.21339 | 3292 ft | 187 kts | 274° |
| 2026-05-07 11:39 | 51.03215 | -0.23400 | 3251 ft | 187 kts | 274° |
| 2026-05-07 11:40 | 51.03298 | -0.25470 | 3208 ft | 187 kts | 273° |
| 2026-05-07 11:40 | 51.03380 | -0.27524 | 3129 ft | 186 kts | 273° |
| 2026-05-07 11:40 | 51.03460 | -0.29579 | 3040 ft | 186 kts | 273° |
| 2026-05-07 11:40 | 51.03541 | -0.31632 | 3006 ft | 186 kts | 273° |
| 2026-05-07 11:41 | 51.03624 | -0.33684 | 3008 ft | 187 kts | 273° |
| 2026-05-07 11:41 | 51.03708 | -0.35741 | 3009 ft | 187 kts | 273° |
| 2026-05-07 11:41 | 51.03791 | -0.37795 | 3006 ft | 186 kts | 273° |
| 2026-05-07 11:41 | 51.03873 | -0.39846 | 3006 ft | 186 kts | 273° |
| 2026-05-07 11:42 | 51.03954 | -0.41908 | 3007 ft | 186 kts | 273° |
| 2026-05-07 11:42 | 51.04036 | -0.43950 | 3006 ft | 186 kts | 273° |
| 2026-05-07 11:42 | 51.04118 | -0.46003 | 3006 ft | 186 kts | 273° |
| 2026-05-07 11:42 | 51.04199 | -0.48045 | 3005 ft | 186 kts | 273° |
| 2026-05-07 11:43 | 51.04281 | -0.50097 | 3001 ft | 186 kts | 273° |
| 2026-05-07 11:43 | 51.04393 | -0.52141 | 2993 ft | 187 kts | 283° |
| 2026-05-07 11:43 | 51.05048 | -0.53872 | 2998 ft | 187 kts | 321° |
| 2026-05-07 11:43 | 51.06216 | -0.54775 | 3008 ft | 188 kts | 345° |
| 2026-05-07 11:44 | 51.07475 | -0.54918 | 3005 ft | 189 kts | 7° |
| 2026-05-07 11:44 | 51.08720 | -0.54292 | 3005 ft | 189 kts | 29° |
| 2026-05-07 11:44 | 51.09727 | -0.52959 | 3003 ft | 190 kts | 52° |
| 2026-05-07 11:44 | 51.10329 | -0.51104 | 3002 ft | 190 kts | 76° |
| 2026-05-07 11:45 | 51.10611 | -0.49131 | 3005 ft | 191 kts | 77° |
| 2026-05-07 11:45 | 51.10902 | -0.47060 | 3007 ft | 190 kts | 77° |
| 2026-05-07 11:45 | 51.11192 | -0.45003 | 3005 ft | 190 kts | 77° |
| 2026-05-07 11:45 | 51.11481 | -0.42949 | 2976 ft | 191 kts | 77° |
| 2026-05-07 11:46 | 51.11771 | -0.40878 | 2791 ft | 191 kts | 77° |
| 2026-05-07 11:46 | 51.12058 | -0.38831 | 2571 ft | 187 kts | 78° |
| 2026-05-07 11:46 | 51.12340 | -0.36822 | 2304 ft | 184 kts | 78° |
| 2026-05-07 11:46 | 51.12613 | -0.34863 | 2064 ft | 178 kts | 78° |
| 2026-05-07 11:47 | 51.12868 | -0.33041 | 1837 ft | 161 kts | 78° |
| 2026-05-07 11:47 | 51.13101 | -0.31370 | 1606 ft | 146 kts | 78° |
| 2026-05-07 11:47 | 51.13315 | -0.29840 | 1414 ft | 139 kts | 78° |
| 2026-05-07 11:47 | 51.13510 | -0.28372 | 1222 ft | 136 kts | 79° |
| 2026-05-07 11:48 | 51.13699 | -0.26902 | 1039 ft | 135 kts | 78° |
| 2026-05-07 11:48 | 51.13907 | -0.25457 | 863 ft | 134 kts | 78° |
| 2026-05-07 11:48 | 51.14114 | -0.24007 | 650 ft | 134 kts | 78° |
| 2026-05-07 11:48 | 51.14317 | -0.22587 | 513 ft | 132 kts | 78° |
| 2026-05-07 11:49 | 51.14520 | -0.21159 | 305 ft | 131 kts | 78° |
| 2026-05-07 11:49 | 51.14715 | -0.19764 | 212 ft | 124 kts | 78° |
| 2026-05-07 11:49 | 51.14868 | -0.18640 | 206 ft | 80 kts | 77° |
| 2026-05-07 11:49 | 51.14951 | -0.18049 | 205 ft | 30 kts | 77° |
| 2026-05-07 11:50 | 51.15005 | -0.17895 | 213 ft | 10 kts | 56° |
| 2026-05-07 11:50 | 51.15069 | -0.17776 | 208 ft | 13 kts | 41° |
| 2026-05-07 11:50 | 51.15130 | -0.17759 | 205 ft | 8 kts | 353° |
| 2026-05-07 11:50 | 51.15182 | -0.17771 | 210 ft | 7 kts | 352° |
| 2026-05-07 11:51 | 51.15220 | -0.17783 | 207 ft | 5 kts | 340° |
| 2026-05-07 11:51 | 51.15241 | -0.17828 | 214 ft | 5 kts | 283° |
| 2026-05-07 11:51 | 51.15238 | -0.17885 | 209 ft | 5 kts | 256° |
| 2026-05-07 11:51 | 51.15237 | -0.17891 | 208 ft | 0 kts | 256° |
| 2026-05-07 11:52 | 51.15236 | -0.17893 | 207 ft | 2 kts | 256° |
| 2026-05-07 11:52 | 51.15227 | -0.17958 | 215 ft | 7 kts | 258° |
| 2026-05-07 11:52 | 51.15221 | -0.18030 | 204 ft | 6 kts | 265° |
| 2026-05-07 11:52 | 51.15239 | -0.18086 | 212 ft | 6 kts | 320° |
| 2026-05-07 11:53 | 51.15287 | -0.18111 | 204 ft | 9 kts | 346° |
| 2026-05-07 11:53 | 51.15355 | -0.18133 | 204 ft | 10 kts | 349° |
| 2026-05-07 11:53 | 51.15418 | -0.18150 | 204 ft | 9 kts | 359° |
| 2026-05-07 11:53 | 51.15456 | -0.18096 | 206 ft | 7 kts | 70° |
| 2026-05-07 11:54 | 51.15468 | -0.18022 | 204 ft | 7 kts | 77° |
| 2026-05-07 11:54 | 51.15477 | -0.17955 | 213 ft | 6 kts | 78° |
| 2026-05-07 11:54 | 51.15491 | -0.17851 | 210 ft | 12 kts | 78° |
| 2026-05-07 11:54 | 51.15509 | -0.17716 | 208 ft | 13 kts | 77° |
| 2026-05-07 11:55 | 51.15523 | -0.17618 | 209 ft | 4 kts | 77° |
| 2026-05-07 11:55 | 51.15538 | -0.17607 | 206 ft | 2 kts | 9° |
| 2026-05-07 11:55 | 51.15561 | -0.17611 | 204 ft | 6 kts | 351° |
| 2026-05-07 11:55 | 51.15585 | -0.17619 | 213 ft | 2 kts | 347° |
| 2026-05-07 11:56 | 51.15591 | -0.17621 | 204 ft | 0 kts | 347° |